Time;durP1;ratioP1;P1;durP2;ratioP2;P2;SDS_P1;SDS_P2;PMS_P1;PMS_P2;Temp;Humidity;BMP_temperature;BMP_pressure;BME280_temperature;BME280_humidity;BME280_pressure;Samples;Min_cycle;Max_cycle;Signal;HPM_P1;HPM_P2
2024/02/12 00:00:21;;;;;;;;;;;;;;;6.99;71.51;99825.54;107560;1253;113161;-65
2024/02/12 00:03:09;;;;;;;;;;;;;;;7.04;71.50;99813.67;107567;1251;110380;-65
2024/02/12 00:05:38;;;;;;;;;;;;;;;7.09;71.52;99815.72;107590;1251;108228;-65
2024/02/12 00:08:10;;;;;;;;;;;;;;;7.11;71.69;99808.46;107662;1251;99201;-63
2024/02/12 00:10:40;;;;;;;;;;;;;;;7.09;71.56;99812.54;107604;1251;99390;-63
2024/02/12 00:13:08;;;;;;;;;;;;;;;7.11;71.68;99814.30;107553;1251;112698;-63
2024/02/12 00:15:36;;;;;;;;;;;;;;;7.14;71.68;99811.71;107550;1251;107593;-64
2024/02/12 00:18:05;;;;;;;;;;;;;;;7.17;71.62;99807.32;107573;1251;107184;-63
2024/02/12 00:20:33;;;;;;;;;;;;;;;7.19;71.66;99801.50;107588;1251;99210;-63
2024/02/12 00:23:02;;;;;;;;;;;;;;;7.21;71.75;99805.92;107600;1251;99212;-65
2024/02/12 00:25:33;;;;;;;;;;;;;;;7.24;71.93;99808.39;107599;1251;113576;-63
2024/02/12 00:28:02;;;;;;;;;;;;;;;7.25;71.89;99807.90;107561;1251;108650;-64
2024/02/12 00:30:32;;;;;;;;;;;;;;;7.26;71.90;99802.96;107561;1254;106755;-65
2024/02/12 00:33:06;;;;;;;;;;;;;;;7.27;71.96;99795.05;107579;1251;99227;-65
2024/02/12 00:35:36;;;;;;;;;;;;;;;7.25;71.81;99800.60;107670;1250;99234;-64
2024/02/12 00:38:04;;;;;;;;;;;;;;;7.20;72.00;99802.63;107594;1251;113110;-64
2024/02/12 00:40:34;;;;;;;;;;;;;;;7.18;72.04;99795.30;107606;1255;108371;-65
2024/02/12 00:43:02;;;;;;;;;;;;;;;7.16;72.42;99790.66;107539;1255;107876;-66
2024/02/12 00:45:31;;;;;;;;;;;;;;;7.13;72.70;99787.00;107608;1254;99131;-64
2024/02/12 00:47:59;;;;;;;;;;;;;;;7.11;72.70;99788.44;107591;1254;99172;-63
2024/02/12 00:50:28;;;;;;;;;;;;;;;7.15;73.08;99795.58;107602;1254;112407;-64
2024/02/12 00:52:57;;;;;;;;;;;;;;;7.16;72.87;99792.82;107622;1254;107737;-63
2024/02/12 00:55:26;;;;;;;;;;;;;;;7.20;73.31;99795.50;107542;1253;108414;-63
2024/02/12 00:57:54;;;;;;;;;;;;;;;7.24;73.43;99795.88;107545;1254;99083;-64
2024/02/12 01:00:23;;;;;;;;;;;;;;;7.28;73.23;99798.72;107593;1253;99308;-64
2024/02/12 01:02:51;;;;;;;;;;;;;;;7.30;73.21;99799.60;107580;1254;113573;-64
2024/02/12 01:05:19;;;;;;;;;;;;;;;7.33;73.45;99798.95;107530;1254;108559;-64
2024/02/12 01:07:49;;;;;;;;;;;;;;;7.34;73.53;99799.73;107599;1252;108708;-64
2024/02/12 01:10:18;;;;;;;;;;;;;;;7.36;73.57;99801.71;107563;1253;99213;-66
2024/02/12 01:12:47;;;;;;;;;;;;;;;7.36;73.38;99800.08;107579;1253;99217;-65
2024/02/12 01:15:16;;;;;;;;;;;;;;;7.35;73.36;99794.84;107593;1254;112696;-66
2024/02/12 01:17:44;;;;;;;;;;;;;;;7.34;73.40;99791.02;107612;1255;107776;-65
2024/02/12 01:20:22;;;;;;;;;;;;;;;7.35;73.54;99790.22;107581;1254;107402;-66
2024/02/12 01:22:51;;;;;;;;;;;;;;;7.35;73.50;99789.89;107641;1253;99170;-65
2024/02/12 01:25:19;;;;;;;;;;;;;;;7.34;73.51;99786.39;107535;1253;99073;-64
2024/02/12 01:27:48;;;;;;;;;;;;;;;7.34;73.65;99788.71;107565;1252;112935;-64
2024/02/12 01:30:16;;;;;;;;;;;;;;;7.34;73.92;99788.67;107585;1254;108672;-64
2024/02/12 01:32:44;;;;;;;;;;;;;;;7.36;74.01;99794.59;107548;1254;108016;-64
2024/02/12 01:35:13;;;;;;;;;;;;;;;7.38;74.18;99801.74;107549;1251;99042;-64
2024/02/12 01:37:42;;;;;;;;;;;;;;;7.40;74.32;99794.45;107590;1251;99042;-63
2024/02/12 01:40:11;;;;;;;;;;;;;;;7.41;74.04;99791.30;107515;1254;112650;-64
2024/02/12 01:42:40;;;;;;;;;;;;;;;7.38;73.85;99790.86;107620;1254;107172;-65
2024/02/12 01:45:17;;;;;;;;;;;;;;;7.38;73.98;99784.29;107593;1251;107866;-66
2024/02/12 01:47:46;;;;;;;;;;;;;;;7.36;74.03;99775.48;107606;1251;99192;-66
2024/02/12 01:50:15;;;;;;;;;;;;;;;7.33;73.80;99768.09;107559;1255;99071;-65
2024/02/12 01:52:52;;;;;;;;;;;;;;;7.30;73.79;99768.54;107683;1251;113205;-65
2024/02/12 01:55:21;;;;;;;;;;;;;;;7.29;73.91;99771.35;107576;1254;107458;-63
2024/02/12 01:57:52;;;;;;;;;;;;;;;7.27;73.89;99779.73;107579;1256;108505;-63
2024/02/12 02:00:26;;;;;;;;;;;;;;;7.25;73.95;99784.73;107581;1251;99185;-64
2024/02/12 02:03:06;;;;;;;;;;;;;;;7.24;73.86;99788.77;107593;1251;99075;-64
2024/02/12 02:05:36;;;;;;;;;;;;;;;7.22;73.84;99784.06;107671;1251;112587;-64
2024/02/12 02:08:05;;;;;;;;;;;;;;;7.19;73.86;99776.27;107565;1251;108354;-63
2024/02/12 02:10:34;;;;;;;;;;;;;;;7.17;73.71;99779.34;107663;1251;108483;-64
2024/02/12 02:13:03;;;;;;;;;;;;;;;7.14;73.76;99778.31;107593;1251;99064;-64
2024/02/12 02:15:34;;;;;;;;;;;;;;;7.11;74.36;99777.77;107601;1251;99191;-63
2024/02/12 02:18:03;;;;;;;;;;;;;;;7.12;74.96;99780.21;107589;1251;113171;-63
2024/02/12 02:20:35;;;;;;;;;;;;;;;7.13;75.22;99782.63;107614;1255;108752;-63
2024/02/12 02:23:04;;;;;;;;;;;;;;;7.14;75.22;99783.23;107549;1252;108137;-66
2024/02/12 02:25:34;;;;;;;;;;;;;;;7.16;75.44;99782.46;107512;1251;99275;-63
2024/02/12 02:28:04;;;;;;;;;;;;;;;7.17;75.39;99773.45;107592;1251;99262;-63
2024/02/12 02:30:33;;;;;;;;;;;;;;;7.17;75.36;99768.60;107607;1251;113528;-63
2024/02/12 02:33:01;;;;;;;;;;;;;;;7.18;76.05;99768.76;107593;1251;107984;-64
2024/02/12 02:35:30;;;;;;;;;;;;;;;7.19;75.84;99762.25;107607;1251;108134;-64
2024/02/12 02:38:01;;;;;;;;;;;;;;;7.19;75.63;99759.58;107568;1251;99263;-64
2024/02/12 02:40:30;;;;;;;;;;;;;;;7.19;76.29;99761.50;107598;1251;99237;-64
2024/02/12 02:43:00;;;;;;;;;;;;;;;7.18;76.56;99761.44;107603;1251;112894;-65
2024/02/12 02:45:30;;;;;;;;;;;;;;;7.18;76.22;99764.08;107596;1251;107545;-63
2024/02/12 02:47:58;;;;;;;;;;;;;;;7.18;76.29;99767.81;107556;1251;108452;-65
2024/02/12 02:50:29;;;;;;;;;;;;;;;7.20;76.50;99763.41;107494;1251;99205;-64
2024/02/12 02:53:01;;;;;;;;;;;;;;;7.21;76.40;99762.42;107607;1251;99164;-64
2024/02/12 02:55:29;;;;;;;;;;;;;;;7.22;76.28;99767.02;107602;1251;112473;-63
2024/02/12 02:58:01;;;;;;;;;;;;;;;7.22;76.30;99764.71;107552;1251;106390;-62
2024/02/12 03:00:30;;;;;;;;;;;;;;;7.19;75.97;99760.23;107631;1251;108588;-63
2024/02/12 03:03:00;;;;;;;;;;;;;;;7.14;75.87;99762.83;107578;1255;99268;-64
2024/02/12 03:05:29;;;;;;;;;;;;;;;7.06;75.86;99759.45;107663;1251;99250;-63
2024/02/12 03:08:02;;;;;;;;;;;;;;;6.98;76.02;99768.58;107663;1251;112860;-62
2024/02/12 03:10:31;;;;;;;;;;;;;;;6.92;76.19;99768.02;107569;1251;107817;-62
2024/02/12 03:12:59;;;;;;;;;;;;;;;6.89;76.12;99773.66;107608;1256;108248;-63
2024/02/12 03:15:28;;;;;;;;;;;;;;;6.87;76.10;99775.44;107583;1257;99060;-63
2024/02/12 03:17:56;;;;;;;;;;;;;;;6.83;76.17;99770.95;107585;1251;99222;-65
2024/02/12 03:20:25;;;;;;;;;;;;;;;6.78;76.75;99772.30;107606;1251;113277;-65
2024/02/12 03:22:53;;;;;;;;;;;;;;;6.76;76.96;99769.65;107630;1251;107068;-63
2024/02/12 03:25:22;;;;;;;;;;;;;;;6.75;76.74;99771.66;107604;1251;108432;-64
2024/02/12 03:27:51;;;;;;;;;;;;;;;6.76;77.01;99769.83;107578;1255;99207;-64
2024/02/12 03:30:19;;;;;;;;;;;;;;;6.78;76.87;99772.84;107599;1251;99070;-64
2024/02/12 03:32:47;;;;;;;;;;;;;;;6.80;76.94;99773.69;107585;1255;113233;-63
2024/02/12 03:35:16;;;;;;;;;;;;;;;6.82;76.97;99772.48;107575;1254;107324;-62
2024/02/12 03:37:44;;;;;;;;;;;;;;;6.85;77.23;99771.30;107533;1254;107896;-62
2024/02/12 03:40:13;;;;;;;;;;;;;;;6.89;77.50;99763.66;107589;1254;99230;-65
2024/02/12 03:42:42;;;;;;;;;;;;;;;6.92;77.28;99769.83;107597;1254;99271;-65
2024/02/12 03:45:13;;;;;;;;;;;;;;;6.95;77.12;99771.19;107568;1254;112050;-65
2024/02/12 03:47:44;;;;;;;;;;;;;;;6.98;77.37;99770.73;107568;1254;108113;-64
2024/02/12 04:01:45;;;;;;;;;;;;;;;6.84;78.20;99770.70;106863;1260;108482;-64
2024/02/12 04:04:13;;;;;;;;;;;;;;;6.85;78.25;99770.78;106910;1259;108143;-63
2024/02/12 04:06:41;;;;;;;;;;;;;;;6.88;78.53;99770.67;107161;1257;99305;-64
2024/02/12 04:09:10;;;;;;;;;;;;;;;6.89;78.36;99769.86;107612;1254;99275;-62
2024/02/12 04:11:42;;;;;;;;;;;;;;;6.88;78.25;99765.66;107597;1254;113526;-63
2024/02/12 04:14:11;;;;;;;;;;;;;;;6.87;78.03;99764.88;107537;1254;108563;-64
2024/02/12 04:16:39;;;;;;;;;;;;;;;6.86;78.17;99770.29;107566;1254;107805;-65
2024/02/12 04:19:10;;;;;;;;;;;;;;;6.84;77.87;99764.98;107551;1254;99204;-63
2024/02/12 04:21:40;;;;;;;;;;;;;;;6.81;77.64;99759.73;107576;1254;99087;-64
2024/02/12 04:24:09;;;;;;;;;;;;;;;6.76;77.49;99757.88;107594;1251;113754;-64
2024/02/12 04:26:37;;;;;;;;;;;;;;;6.73;77.69;99751.91;107551;1254;107535;-64
2024/02/12 04:29:06;;;;;;;;;;;;;;;6.67;77.76;99747.79;107561;1254;108348;-64
2024/02/12 04:31:35;;;;;;;;;;;;;;;6.66;77.95;99750.68;107553;1254;99182;-65
2024/02/12 04:34:07;;;;;;;;;;;;;;;6.67;78.06;99746.73;107605;1254;99080;-64
2024/02/12 04:36:40;;;;;;;;;;;;;;;6.67;77.91;99750.64;107636;1255;112749;-64
2024/02/12 04:39:09;;;;;;;;;;;;;;;6.64;77.79;99761.57;107640;1254;107242;-64
2024/02/12 04:42:01;;;;;;;;;;;;;;;6.56;77.21;99759.77;107547;1254;106152;-65
2024/02/12 04:44:29;;;;;;;;;;;;;;;6.45;77.17;99752.05;107517;1255;99144;-63
2024/02/12 04:47:00;;;;;;;;;;;;;;;6.42;78.06;99754.96;107621;1251;99939;-64
2024/02/12 04:49:29;;;;;;;;;;;;;;;6.43;79.22;99755.02;107563;1254;113245;-64
2024/02/12 04:51:57;;;;;;;;;;;;;;;6.37;79.55;99755.95;107603;1251;109323;-62
2024/02/12 04:54:26;;;;;;;;;;;;;;;6.32;79.40;99764.52;107586;1251;108739;-63
2024/02/12 04:56:54;;;;;;;;;;;;;;;6.27;79.12;99766.56;107610;1253;99257;-63
2024/02/12 04:59:22;;;;;;;;;;;;;;;6.28;79.23;99771.52;107534;1254;99187;-64
2024/02/12 05:01:53;;;;;;;;;;;;;;;6.29;79.37;99778.19;107546;1256;113572;-63
2024/02/12 05:04:21;;;;;;;;;;;;;;;6.25;79.12;99770.46;107536;1255;107295;-65
2024/02/12 05:06:50;;;;;;;;;;;;;;;6.23;79.35;99771.55;107557;1254;108213;-63
2024/02/12 05:09:19;;;;;;;;;;;;;;;6.23;79.78;99761.02;107576;1254;99190;-63
2024/02/12 05:11:48;;;;;;;;;;;;;;;6.26;80.07;99762.58;107566;1256;99279;-63
2024/02/12 05:14:17;;;;;;;;;;;;;;;6.27;80.30;99766.64;107590;1256;113182;-63
2024/02/12 05:16:47;;;;;;;;;;;;;;;6.31;80.49;99770.39;107558;1254;107764;-63
2024/02/12 05:24:49;;;;;;;;;;;;;;;6.42;80.38;99773.44;107559;1255;99202;-63
2024/02/12 05:27:17;;;;;;;;;;;;;;;6.47;80.43;99778.55;107581;1255;112994;-62
2024/02/12 05:29:45;;;;;;;;;;;;;;;6.50;80.55;99780.95;107566;1256;108820;-63
2024/02/12 05:32:14;;;;;;;;;;;;;;;6.53;80.49;99779.48;107514;1254;108246;-65
2024/02/12 05:34:42;;;;;;;;;;;;;;;6.54;80.32;99786.69;107588;1251;99194;-66
2024/02/12 05:37:12;;;;;;;;;;;;;;;6.53;80.40;99790.67;107516;1251;99201;-67
2024/02/12 05:39:41;;;;;;;;;;;;;;;6.53;80.33;99798.34;107575;1251;112724;-65
2024/02/12 05:42:09;;;;;;;;;;;;;;;6.53;80.21;99802.77;107655;1256;106449;-65
2024/02/12 05:44:37;;;;;;;;;;;;;;;6.50;79.85;99809.11;107566;1251;107623;-65
2024/02/12 05:47:06;;;;;;;;;;;;;;;6.50;79.75;99812.88;107527;1251;99198;-65
2024/02/12 05:49:34;;;;;;;;;;;;;;;6.48;79.52;99815.54;107575;1256;99839;-64
2024/02/12 05:52:03;;;;;;;;;;;;;;;6.42;79.13;99821.60;107545;1251;113729;-65
2024/02/12 05:54:31;;;;;;;;;;;;;;;6.40;79.41;99825.67;107590;1251;108030;-65
2024/02/12 05:57:02;;;;;;;;;;;;;;;6.37;78.95;99826.48;107524;1251;107535;-67
2024/02/12 05:59:32;;;;;;;;;;;;;;;6.33;78.89;99823.75;107564;1254;99282;-66
2024/02/12 06:02:05;;;;;;;;;;;;;;;6.30;78.72;99826.69;107490;1251;99200;-67
2024/02/12 06:04:33;;;;;;;;;;;;;;;6.30;78.93;99825.63;107530;1254;112829;-66
2024/02/12 06:07:01;;;;;;;;;;;;;;;6.33;79.03;99830.92;107549;1251;108633;-67
2024/02/12 06:09:31;;;;;;;;;;;;;;;6.35;78.91;99833.73;107616;1254;108140;-66
2024/02/12 06:11:59;;;;;;;;;;;;;;;6.36;78.91;99838.62;107544;1254;99845;-67
2024/02/12 06:14:27;;;;;;;;;;;;;;;6.35;78.67;99840.55;107541;1254;99182;-66
2024/02/12 06:16:56;;;;;;;;;;;;;;;6.33;78.79;99841.55;107506;1251;112948;-65
2024/02/12 06:19:24;;;;;;;;;;;;;;;6.30;78.84;99839.32;107526;1251;106922;-65
2024/02/12 06:21:53;;;;;;;;;;;;;;;6.33;79.02;99843.17;107501;1256;107676;-65
2024/02/12 06:24:22;;;;;;;;;;;;;;;6.33;78.91;99841.39;107504;1254;100611;-65
2024/02/12 06:26:51;;;;;;;;;;;;;;;6.35;79.04;99840.33;107562;1256;99100;-65
2024/02/12 06:29:19;;;;;;;;;;;;;;;6.37;79.01;99839.41;107550;1254;112297;-65
2024/02/12 06:31:48;;;;;;;;;;;;;;;6.40;79.07;99831.30;107522;1251;107835;-65
2024/02/12 06:34:16;;;;;;;;;;;;;;;6.39;78.80;99831.23;107487;1256;108348;-66
2024/02/12 06:36:45;;;;;;;;;;;;;;;6.40;78.74;99826.89;107523;1251;99173;-66
2024/02/12 06:39:14;;;;;;;;;;;;;;;6.43;78.88;99821.98;107497;1256;99755;-66
2024/02/12 06:41:44;;;;;;;;;;;;;;;6.47;78.97;99816.33;107538;1251;113614;-66
2024/02/12 06:44:15;;;;;;;;;;;;;;;6.50;78.86;99808.55;107577;1256;106997;-64
2024/02/12 06:46:44;;;;;;;;;;;;;;;6.53;78.90;99807.77;107498;1254;107671;-64
2024/02/12 06:49:13;;;;;;;;;;;;;;;6.56;78.75;99805.61;107505;1256;99175;-65
2024/02/12 06:51:41;;;;;;;;;;;;;;;6.59;78.92;99807.65;107557;1256;99136;-65
2024/02/12 06:54:09;;;;;;;;;;;;;;;6.63;78.88;99804.27;107559;1255;114030;-66
2024/02/12 06:56:44;;;;;;;;;;;;;;;6.65;78.84;99803.35;107576;1254;107941;-66
2024/02/12 06:59:12;;;;;;;;;;;;;;;6.68;78.93;99802.57;107537;1256;107338;-67
2024/02/12 07:01:40;;;;;;;;;;;;;;;6.73;78.90;99796.77;107544;1256;99274;-67
2024/02/12 07:04:09;;;;;;;;;;;;;;;6.78;78.86;99790.98;107599;1252;99148;-67
2024/02/12 07:06:38;;;;;;;;;;;;;;;6.84;78.79;99791.69;107547;1255;112715;-67
2024/02/12 07:09:08;;;;;;;;;;;;;;;6.89;78.60;99788.96;107543;1256;108027;-66
2024/02/12 07:11:37;;;;;;;;;;;;;;;6.95;78.65;99787.06;107506;1254;108164;-66
2024/02/12 07:14:06;;;;;;;;;;;;;;;7.02;79.09;99785.11;107538;1253;99217;-66
2024/02/12 07:16:34;;;;;;;;;;;;;;;7.14;79.25;99785.14;107552;1251;99211;-67
2024/02/12 07:19:04;;;;;;;;;;;;;;;7.25;79.40;99784.39;107585;1256;113393;-66
2024/02/12 07:21:32;;;;;;;;;;;;;;;7.35;79.52;99786.45;107598;1254;108989;-64
2024/02/12 07:24:00;;;;;;;;;;;;;;;7.47;79.28;99793.10;107539;1251;107958;-64
2024/02/12 07:26:30;;;;;;;;;;;;;;;7.58;79.53;99798.35;107610;1252;99214;-64
2024/02/12 07:28:58;;;;;;;;;;;;;;;7.69;79.70;99785.50;107559;1251;99041;-64
2024/02/12 07:31:26;;;;;;;;;;;;;;;7.83;79.93;99783.03;107554;1254;112768;-64
2024/02/12 07:33:54;;;;;;;;;;;;;;;7.97;80.25;99777.60;107608;1254;107973;-64
2024/02/12 07:36:23;;;;;;;;;;;;;;;8.10;80.13;99776.52;107599;1257;107754;-64
2024/02/12 07:38:51;;;;;;;;;;;;;;;8.20;80.11;99780.83;107560;1254;99170;-64
2024/02/12 07:41:20;;;;;;;;;;;;;;;8.31;80.43;99778.67;107645;1251;99285;-64
2024/02/12 07:43:48;;;;;;;;;;;;;;;8.44;80.57;99774.96;107605;1250;113377;-63
2024/02/12 07:46:16;;;;;;;;;;;;;;;8.55;80.29;99776.14;107583;1251;108022;-63
2024/02/12 07:48:44;;;;;;;;;;;;;;;8.66;80.24;99780.43;107555;1254;107865;-63
2024/02/12 07:51:15;;;;;;;;;;;;;;;8.76;79.95;99789.45;107622;1256;99252;-64
2024/02/12 07:53:44;;;;;;;;;;;;;;;8.86;79.80;99789.02;107595;1251;99185;-64
2024/02/12 07:56:13;;;;;;;;;;;;;;;9.00;79.82;99791.27;107562;1254;112561;-65
2024/02/12 07:58:42;;;;;;;;;;;;;;;9.16;80.01;99790.77;107596;1254;108296;-65
2024/02/12 08:01:10;;;;;;;;;;;;;;;9.35;80.10;99790.22;107602;1256;108284;-64
2024/02/12 08:03:38;;;;;;;;;;;;;;;9.55;80.17;99786.45;107571;1255;99170;-64
2024/02/12 08:06:07;;;;;;;;;;;;;;;9.75;80.17;99781.39;107604;1253;99182;-65
2024/02/12 08:08:35;;;;;;;;;;;;;;;9.98;80.11;99782.27;107571;1251;112728;-64
2024/02/12 08:11:05;;;;;;;;;;;;;;;10.19;79.95;99776.77;107508;1254;107783;-64
2024/02/12 08:13:35;;;;;;;;;;;;;;;10.33;79.37;99773.89;107544;1255;108261;-64
2024/02/12 08:16:07;;;;;;;;;;;;;;;10.43;78.76;99765.04;107567;1251;99177;-64
2024/02/12 08:18:36;;;;;;;;;;;;;;;10.54;78.33;99763.17;107619;1251;99166;-64
2024/02/12 08:21:05;;;;;;;;;;;;;;;10.63;78.06;99762.02;107590;1251;113294;-63
2024/02/12 08:23:34;;;;;;;;;;;;;;;10.73;77.73;99758.69;107600;1255;107270;-63
2024/02/12 08:26:06;;;;;;;;;;;;;;;10.81;77.20;99758.36;107613;1254;107838;-63
2024/02/12 08:28:35;;;;;;;;;;;;;;;10.91;76.88;99756.41;107623;1253;99185;-63
2024/02/12 08:31:03;;;;;;;;;;;;;;;11.07;76.78;99752.01;107617;1251;99186;-63
2024/02/12 08:33:31;;;;;;;;;;;;;;;11.29;76.74;99750.91;107534;1255;112511;-63
2024/02/12 08:35:59;;;;;;;;;;;;;;;11.57;76.45;99750.30;107569;1251;107505;-65
2024/02/12 08:38:27;;;;;;;;;;;;;;;11.89;76.23;99747.52;107509;1254;107630;-64
2024/02/12 08:40:56;;;;;;;;;;;;;;;12.21;75.73;99742.00;107562;1251;99173;-64
2024/02/12 08:43:25;;;;;;;;;;;;;;;12.54;75.06;99747.46;107537;1254;99291;-64
2024/02/12 08:45:53;;;;;;;;;;;;;;;12.84;74.26;99745.55;107385;1251;246064;-64
2024/02/12 08:48:21;;;;;;;;;;;;;;;13.14;73.53;99749.60;107549;1251;108248;-65
2024/02/12 08:50:49;;;;;;;;;;;;;;;13.44;71.95;99752.67;107514;1254;107971;-64
2024/02/12 08:53:18;;;;;;;;;;;;;;;13.71;71.69;99754.91;107538;1251;99197;-63
2024/02/12 08:55:47;;;;;;;;;;;;;;;13.94;71.11;99753.72;107527;1251;99301;-64
2024/02/12 08:58:16;;;;;;;;;;;;;;;14.18;69.74;99752.81;107506;1254;112185;-64
2024/02/12 09:00:44;;;;;;;;;;;;;;;14.44;66.90;99756.70;107468;1251;108081;-64
2024/02/12 09:03:13;;;;;;;;;;;;;;;14.69;64.45;99759.67;107495;1254;108265;-64
2024/02/12 09:05:42;;;;;;;;;;;;;;;14.97;63.13;99761.70;107608;1254;99208;-64
2024/02/12 09:08:10;;;;;;;;;;;;;;;15.26;60.87;99760.15;107457;1251;99066;-64
2024/02/12 09:10:38;;;;;;;;;;;;;;;15.54;59.53;99759.85;107493;1251;113407;-65
2024/02/12 09:13:07;;;;;;;;;;;;;;;15.83;58.84;99754.98;107335;1254;107915;-65
2024/02/12 09:15:35;;;;;;;;;;;;;;;16.17;56.89;99756.61;107498;1251;108333;-65
2024/02/12 09:18:03;;;;;;;;;;;;;;;16.57;55.60;99753.34;107500;1251;99229;-65
2024/02/12 09:20:31;;;;;;;;;;;;;;;17.16;53.38;99754.52;107479;1254;99055;-65
2024/02/12 09:23:00;;;;;;;;;;;;;;;17.92;50.59;99755.57;107505;1251;112603;-66
2024/02/12 09:25:30;;;;;;;;;;;;;;;18.40;49.26;99750.18;107499;1254;108669;-65
2024/02/12 09:27:59;;;;;;;;;;;;;;;18.79;50.50;99743.53;107456;1251;108303;-65
2024/02/12 09:30:28;;;;;;;;;;;;;;;19.25;50.37;99747.39;107435;1251;99255;-65
2024/02/12 09:32:56;;;;;;;;;;;;;;;19.65;48.36;99747.23;107609;1251;99214;-65
2024/02/12 09:35:27;;;;;;;;;;;;;;;20.03;47.12;99745.61;107497;1251;112433;-66
2024/02/12 09:37:55;;;;;;;;;;;;;;;20.32;47.63;99743.23;107499;1251;108487;-63
2024/02/12 09:40:31;;;;;;;;;;;;;;;20.64;47.33;99743.86;107422;1251;107891;-66
2024/02/12 09:43:00;;;;;;;;;;;;;;;21.04;47.48;99739.48;107563;1254;99257;-65
2024/02/12 09:45:31;;;;;;;;;;;;;;;21.42;45.79;99737.98;107457;1251;99070;-64
2024/02/12 09:48:00;;;;;;;;;;;;;;;21.72;45.28;99737.45;107575;1251;112484;-65
2024/02/12 09:50:29;;;;;;;;;;;;;;;21.93;42.89;99732.35;107561;1251;106641;-65
2024/02/12 09:52:58;;;;;;;;;;;;;;;22.13;42.07;99728.32;107507;1251;105658;-65
2024/02/12 09:55:26;;;;;;;;;;;;;;;21.90;41.90;99733.63;107488;1251;99199;-65
2024/02/12 09:57:55;;;;;;;;;;;;;;;21.86;40.04;99733.77;107538;1251;99077;-65
2024/02/12 10:00:24;;;;;;;;;;;;;;;21.93;41.29;99728.56;107530;1251;113632;-65
2024/02/12 10:02:56;;;;;;;;;;;;;;;21.90;40.68;99718.10;107464;1251;108140;-64
2024/02/12 10:05:26;;;;;;;;;;;;;;;21.83;41.63;99710.76;107601;1251;107538;-64
2024/02/12 10:07:54;;;;;;;;;;;;;;;21.78;41.89;99710.20;107522;1254;99285;-65
2024/02/12 10:10:24;;;;;;;;;;;;;;;21.61;40.78;99711.77;107629;1251;99099;-66
2024/02/12 10:12:53;;;;;;;;;;;;;;;21.24;40.58;99715.08;107552;1251;112540;-65
2024/02/12 10:15:23;;;;;;;;;;;;;;;21.01;40.95;99716.44;107592;1254;108334;-65
2024/02/12 10:17:55;;;;;;;;;;;;;;;21.00;41.53;99713.52;107598;1251;108692;-66
2024/02/12 10:20:24;;;;;;;;;;;;;;;21.32;41.95;99707.64;107614;1254;99210;-65
2024/02/12 10:22:53;;;;;;;;;;;;;;;21.98;40.98;99703.16;107430;1251;99166;-66
2024/02/12 10:25:21;;;;;;;;;;;;;;;22.57;40.40;99699.05;107472;1251;113651;-65
2024/02/12 10:27:50;;;;;;;;;;;;;;;23.36;39.14;99693.40;107470;1250;107493;-65
2024/02/12 10:30:20;;;;;;;;;;;;;;;24.10;38.61;99689.38;107467;1250;108508;-65
2024/02/12 10:32:49;;;;;;;;;;;;;;;24.46;38.04;99687.74;107542;1251;99166;-66
2024/02/12 10:35:20;;;;;;;;;;;;;;;24.46;35.57;99684.67;107446;1254;99179;-66
2024/02/12 10:37:51;;;;;;;;;;;;;;;23.90;36.72;99678.20;107642;1251;112332;-66
2024/02/12 10:40:24;;;;;;;;;;;;;;;23.59;36.69;99680.64;107556;1250;108010;-64
2024/02/12 10:42:53;;;;;;;;;;;;;;;23.28;36.54;99679.59;107414;1251;108409;-65
2024/02/12 10:45:21;;;;;;;;;;;;;;;23.02;37.33;99676.63;107482;1253;99274;-65
2024/02/12 10:47:50;;;;;;;;;;;;;;;22.80;37.26;99676.34;107462;1251;99096;-65
2024/02/12 10:50:19;;;;;;;;;;;;;;;22.57;38.36;99674.72;107563;1254;112244;-66
2024/02/12 10:52:49;;;;;;;;;;;;;;;22.67;38.33;99674.98;107611;1251;108455;-65
2024/02/12 10:55:18;;;;;;;;;;;;;;;22.66;37.83;99675.29;107555;1252;108220;-66
2024/02/12 10:57:46;;;;;;;;;;;;;;;22.64;38.04;99671.14;107642;1251;99307;-65
2024/02/12 11:00:28;;;;;;;;;;;;;;;22.57;38.12;99661.45;107509;1251;99180;-65
2024/02/12 11:02:59;;;;;;;;;;;;;;;22.52;38.59;99654.51;107511;1251;111489;-65
2024/02/12 11:05:28;;;;;;;;;;;;;;;22.48;38.61;99656.23;107482;1253;108209;-66
2024/02/12 11:08:00;;;;;;;;;;;;;;;22.44;37.97;99654.41;107518;1251;108119;-65
2024/02/12 11:10:31;;;;;;;;;;;;;;;22.34;38.02;99652.46;107576;1254;99189;-66
2024/02/12 11:13:03;;;;;;;;;;;;;;;22.41;38.66;99646.36;107496;1251;99087;-65
2024/02/12 11:15:32;;;;;;;;;;;;;;;22.55;38.06;99635.81;107538;1255;111668;-65
2024/02/12 11:18:11;;;;;;;;;;;;;;;22.62;37.83;99633.77;107635;1252;107373;-65
2024/02/12 11:20:49;;;;;;;;;;;;;;;22.71;38.79;99623.53;107520;1254;108511;-64
2024/02/12 11:23:25;;;;;;;;;;;;;;;22.84;37.96;99623.88;107523;1256;99217;-64
2024/02/12 11:25:59;;;;;;;;;;;;;;;22.82;38.17;99622.36;107619;1254;99086;-65
2024/02/12 11:28:29;;;;;;;;;;;;;;;22.75;38.49;99616.20;107624;1254;113055;-64
2024/02/12 11:30:57;;;;;;;;;;;;;;;23.13;38.95;99609.54;107604;1251;107506;-64
2024/02/12 11:33:26;;;;;;;;;;;;;;;24.00;37.70;99606.55;107527;1251;107234;-65
2024/02/12 11:36:03;;;;;;;;;;;;;;;24.84;36.37;99604.83;107568;1251;99219;-63
2024/02/12 11:38:31;;;;;;;;;;;;;;;25.50;35.23;99602.17;107577;1250;99058;-64
2024/02/12 11:41:00;;;;;;;;;;;;;;;25.98;34.63;99596.20;107561;1251;112967;-65
2024/02/12 11:43:31;;;;;;;;;;;;;;;26.40;33.54;99597.40;107613;1251;108157;-65
2024/02/12 11:46:00;;;;;;;;;;;;;;;26.49;32.35;99598.77;107529;1251;108102;-63
2024/02/12 11:48:29;;;;;;;;;;;;;;;26.43;33.39;99604.91;107502;1251;99740;-64
2024/02/12 11:50:57;;;;;;;;;;;;;;;26.59;33.84;99593.48;107582;1251;99862;-64
2024/02/12 11:53:26;;;;;;;;;;;;;;;26.74;32.87;99584.98;107641;1250;113419;-64
2024/02/12 11:55:54;;;;;;;;;;;;;;;26.68;31.95;99586.84;107508;1254;108379;-63
2024/02/12 11:58:23;;;;;;;;;;;;;;;26.31;32.29;99585.85;107569;1251;107554;-63
2024/02/12 12:00:52;;;;;;;;;;;;;;;25.94;32.74;99589.73;107516;1251;99262;-63
2024/02/12 12:03:20;;;;;;;;;;;;;;;25.61;33.36;99592.80;107590;1251;99279;-63
2024/02/12 12:05:51;;;;;;;;;;;;;;;25.43;33.71;99588.58;107550;1251;113586;-64
2024/02/12 12:08:26;;;;;;;;;;;;;;;25.31;34.04;99579.50;107591;1251;108358;-63
2024/02/12 12:11:03;;;;;;;;;;;;;;;25.26;34.11;99579.35;107515;1251;107953;-64
2024/02/12 12:13:32;;;;;;;;;;;;;;;25.21;34.21;99572.59;107551;1251;99207;-64
2024/02/12 12:16:00;;;;;;;;;;;;;;;25.14;34.45;99568.41;107555;1251;99070;-63
2024/02/12 12:18:29;;;;;;;;;;;;;;;25.16;34.06;99565.23;107561;1251;113087;-63
2024/02/12 12:20:57;;;;;;;;;;;;;;;25.09;33.72;99564.58;107565;1251;107711;-64
2024/02/12 12:23:26;;;;;;;;;;;;;;;24.94;33.67;99561.48;107527;1250;107559;-65
2024/02/12 12:25:56;;;;;;;;;;;;;;;24.56;34.13;99564.54;107581;1251;99070;-64
2024/02/12 12:28:25;;;;;;;;;;;;;;;24.26;34.40;99557.23;107558;1251;99160;-64
2024/02/12 12:30:55;;;;;;;;;;;;;;;23.92;34.89;99557.50;107519;1251;113800;-65
2024/02/12 12:33:24;;;;;;;;;;;;;;;23.63;35.34;99554.46;107486;1251;109124;-64
2024/02/12 12:35:54;;;;;;;;;;;;;;;23.29;35.71;99556.48;107573;1251;108286;-64
2024/02/12 12:38:23;;;;;;;;;;;;;;;22.96;36.29;99554.87;107536;1251;99179;-63
2024/02/12 12:40:52;;;;;;;;;;;;;;;22.85;36.90;99553.70;107571;1251;99070;-63
2024/02/12 12:43:21;;;;;;;;;;;;;;;22.83;36.97;99547.46;107537;1251;112999;-63
2024/02/12 12:45:52;;;;;;;;;;;;;;;22.75;37.02;99549.15;107551;1251;107919;-63
2024/02/12 12:48:22;;;;;;;;;;;;;;;22.67;37.44;99548.01;107558;1251;108492;-63
2024/02/12 12:50:52;;;;;;;;;;;;;;;22.68;37.78;99542.86;107529;1251;99279;-64
2024/02/12 12:53:28;;;;;;;;;;;;;;;22.77;37.47;99536.30;107520;1250;99144;-64
2024/02/12 12:55:57;;;;;;;;;;;;;;;22.96;37.56;99531.58;107510;1251;112621;-63
2024/02/12 12:58:26;;;;;;;;;;;;;;;23.17;37.20;99526.81;107586;1251;108516;-63
2024/02/12 13:00:55;;;;;;;;;;;;;;;23.28;36.90;99527.17;107536;1251;108487;-63
2024/02/12 13:03:23;;;;;;;;;;;;;;;23.44;36.88;99533.55;107530;1254;99271;-63
2024/02/12 13:05:52;;;;;;;;;;;;;;;23.65;36.59;99532.10;107684;1254;99166;-64